Time;durP1;ratioP1;P1;durP2;ratioP2;P2;SDS_P1;SDS_P2;PMS_P1;PMS_P2;Temp;Humidity;BMP_temperature;BMP_pressure;BME280_temperature;BME280_humidity;BME280_pressure;Samples;Min_cycle;Max_cycle;Signal;HPM_P1;HPM_P2
2021/05/12 00:00:50;;;;;;;4.35;2.60;;;;;;;;;;1469265;40;20408;-80
2021/05/12 00:01:52;;;;;;;5.65;2.17;;;;;;;;;;1469339;40;20425;-80
2021/05/12 00:02:54;;;;;;;4.95;1.95;;;;;;;;;;1473395;40;20404;-80
2021/05/12 00:03:55;;;;;;;5.28;2.50;;;;;;;;;;1477416;40;20512;-79
2021/05/12 00:04:57;;;;;;;3.80;1.98;;;;;;;;;;1478011;40;20721;-79
2021/05/12 00:05:59;;;;;;;5.63;2.53;;;;;;;;;;1477901;40;20422;-79
2021/05/12 00:07:00;;;;;;;7.95;2.40;;;;;;;;;;1478168;40;20487;-79
2021/05/12 00:08:02;;;;;;;5.25;2.75;;;;;;;;;;1470505;40;20882;-79
2021/05/12 00:09:04;;;;;;;5.95;2.22;;;;;;;;;;1469422;40;20413;-79
2021/05/12 00:10:08;;;;;;;7.50;2.75;;;;;;;;;;1473561;40;20420;-78
2021/05/12 00:11:09;;;;;;;6.25;2.42;;;;;;;;;;1469145;40;20531;-79
2021/05/12 00:12:11;;;;;;;4.68;2.10;;;;;;;;;;1469365;40;21151;-79
2021/05/12 00:13:13;;;;;;;3.50;2.65;;;;;;;;;;1469283;40;20976;-79
2021/05/12 00:14:15;;;;;;;6.03;2.55;;;;;;;;;;1469429;40;20421;-79
2021/05/12 00:15:20;;;;;;;5.97;2.50;;;;;;;;;;1469431;40;20402;-79
2021/05/12 00:16:22;;;;;;;7.30;3.22;;;;;;;;;;1478240;40;20402;-78
2021/05/12 00:17:26;;;;;;;5.65;2.88;;;;;;;;;;1478460;40;20410;-80
2021/05/12 00:18:33;;;;;;;11.15;3.30;;;;;;;;;;1478835;40;20418;-79
2021/05/12 00:19:37;;;;;;;4.55;2.38;;;;;;;;;;1478649;40;20393;-78
2021/05/12 00:20:40;;;;;;;6.90;2.90;;;;;;;;;;1474189;40;20544;-79
2021/05/12 00:24:03;;;;;;;6.40;3.00;;;;;;;;;;1474583;40;20471;-78
2021/05/12 00:25:08;;;;;;;5.87;2.60;;;;;;;;;;1472944;40;20645;-79
2021/05/12 00:26:10;;;;;;;8.82;3.90;;;;;;;;;;1474160;40;20419;-79
2021/05/12 00:27:12;;;;;;;6.82;2.40;;;;;;;;;;1469776;40;20856;-78
2021/05/12 00:28:13;;;;;;;4.25;2.97;;;;;;;;;;1469128;40;20430;-78
2021/05/12 00:29:17;;;;;;;6.25;2.90;;;;;;;;;;1477344;40;20418;-78
2021/05/12 00:30:20;;;;;;;8.77;2.95;;;;;;;;;;1478607;40;20414;-78
2021/05/12 00:31:22;;;;;;;8.25;3.28;;;;;;;;;;1478180;40;20427;-79
2021/05/12 00:32:23;;;;;;;5.50;2.30;;;;;;;;;;1474195;40;20412;-78
2021/05/12 00:33:25;;;;;;;5.18;3.22;;;;;;;;;;1473529;40;21061;-78
2021/05/12 00:34:27;;;;;;;6.68;3.13;;;;;;;;;;1473936;40;21080;-78
2021/05/12 00:35:29;;;;;;;5.72;3.25;;;;;;;;;;1469620;40;20491;-78
2021/05/12 00:36:30;;;;;;;6.78;2.88;;;;;;;;;;1468609;40;21164;-79
2021/05/12 00:37:32;;;;;;;6.25;2.90;;;;;;;;;;1473244;40;20465;-78
2021/05/12 00:38:33;;;;;;;9.00;3.00;;;;;;;;;;1476265;40;20443;-78
2021/05/12 00:39:35;;;;;;;4.95;2.88;;;;;;;;;;1475364;40;20768;-78
2021/05/12 00:40:36;;;;;;;5.93;3.03;;;;;;;;;;1477742;40;20576;-78
2021/05/12 00:41:40;;;;;;;7.03;3.40;;;;;;;;;;1478003;40;20811;-79
2021/05/12 00:42:42;;;;;;;4.60;2.72;;;;;;;;;;1478846;40;20413;-78
2021/05/12 00:43:43;;;;;;;7.45;3.55;;;;;;;;;;1476560;40;20482;-79
2021/05/12 00:44:45;;;;;;;6.90;3.03;;;;;;;;;;1473865;40;20514;-78
2021/05/12 00:45:46;;;;;;;7.18;2.90;;;;;;;;;;1465327;40;20767;-78
2021/05/12 00:46:50;;;;;;;6.53;2.97;;;;;;;;;;1462045;40;20428;-78
2021/05/12 00:47:53;;;;;;;4.60;3.03;;;;;;;;;;1465933;40;20661;-79
2021/05/12 00:48:54;;;;;;;4.63;2.50;;;;;;;;;;1473822;40;20549;-79
2021/05/12 00:49:56;;;;;;;6.88;3.47;;;;;;;;;;1474168;40;20407;-80
2021/05/12 00:50:58;;;;;;;7.23;3.23;;;;;;;;;;1469648;40;20405;-79
2021/05/12 00:52:01;;;;;;;6.78;3.28;;;;;;;;;;1469904;40;20406;-78
2021/05/12 00:53:04;;;;;;;8.43;3.38;;;;;;;;;;1474549;40;20497;-79
2021/05/12 00:54:06;;;;;;;6.90;3.03;;;;;;;;;;1473865;40;20517;-78
2021/05/12 00:55:08;;;;;;;9.18;3.30;;;;;;;;;;1473822;40;20517;-78
2021/05/12 00:56:12;;;;;;;8.45;3.75;;;;;;;;;;1476873;40;20410;-78
2021/05/12 00:57:14;;;;;;;9.10;3.75;;;;;;;;;;1478421;40;20475;-79
2021/05/12 00:58:16;;;;;;;6.25;3.50;;;;;;;;;;1478301;40;20410;-78
2021/05/12 00:59:18;;;;;;;6.43;3.10;;;;;;;;;;1478310;40;20700;-78
2021/05/12 01:00:23;;;;;;;7.25;3.05;;;;;;;;;;1479985;40;20402;-79
2021/05/12 01:01:24;;;;;;;6.75;3.33;;;;;;;;;;1480938;40;20394;-78
2021/05/12 01:02:26;;;;;;;6.75;3.13;;;;;;;;;;1480835;40;20827;-78
2021/05/12 01:03:28;;;;;;;7.60;3.45;;;;;;;;;;1481352;40;20425;-78
2021/05/12 01:04:30;;;;;;;7.15;3.00;;;;;;;;;;1483262;40;20402;-79
2021/05/12 01:05:34;;;;;;;5.90;3.13;;;;;;;;;;1482718;40;20489;-80
2021/05/12 01:06:38;;;;;;;5.88;3.35;;;;;;;;;;1478520;40;20475;-78
2021/05/12 01:07:40;;;;;;;7.63;3.40;;;;;;;;;;1477383;40;20402;-79
2021/05/12 01:08:41;;;;;;;3.88;2.72;;;;;;;;;;1473761;40;20732;-77
2021/05/12 01:09:43;;;;;;;7.45;3.25;;;;;;;;;;1473283;40;20784;-78
2021/05/12 01:10:46;;;;;;;8.02;3.05;;;;;;;;;;1475149;40;20456;-78
2021/05/12 01:11:47;;;;;;;8.95;3.75;;;;;;;;;;1474976;40;20424;-79
2021/05/12 01:12:50;;;;;;;7.93;3.60;;;;;;;;;;1474684;40;20412;-78
2021/05/12 01:13:55;;;;;;;8.02;3.17;;;;;;;;;;1476516;40;20576;-79
2021/05/12 01:14:57;;;;;;;4.72;2.70;;;;;;;;;;1465779;40;20414;-79
2021/05/12 01:15:59;;;;;;;5.22;3.60;;;;;;;;;;1468070;40;20413;-79
2021/05/12 01:17:00;;;;;;;6.05;3.08;;;;;;;;;;1469864;40;20451;-80
2021/05/12 01:18:14;;;;;;;7.35;3.10;;;;;;;;;;1468679;40;20703;-79
2021/05/12 01:19:16;;;;;;;6.28;2.60;;;;;;;;;;1474497;40;20423;-78
2021/05/12 01:20:17;;;;;;;5.40;2.95;;;;;;;;;;1474535;40;20407;-79
2021/05/12 01:21:19;;;;;;;7.05;2.53;;;;;;;;;;1465500;40;20419;-79
2021/05/12 01:22:21;;;;;;;8.73;3.10;;;;;;;;;;1461928;40;20405;-79
2021/05/12 01:23:25;;;;;;;5.22;2.83;;;;;;;;;;1465554;40;20423;-79
2021/05/12 01:24:27;;;;;;;4.85;2.60;;;;;;;;;;1471912;40;20423;-78
2021/05/12 01:25:28;;;;;;;6.05;3.25;;;;;;;;;;1473573;40;20539;-78
2021/05/12 01:26:30;;;;;;;6.82;2.75;;;;;;;;;;1474374;40;20767;-79
2021/05/12 01:27:32;;;;;;;7.27;3.10;;;;;;;;;;1469953;40;20462;-77
2021/05/12 01:28:36;;;;;;;6.82;3.03;;;;;;;;;;1472861;40;20419;-78
2021/05/12 01:29:38;;;;;;;5.15;2.67;;;;;;;;;;1473984;40;20411;-79
2021/05/12 01:30:40;;;;;;;8.13;2.80;;;;;;;;;;1470430;40;20826;-79
2021/05/12 01:31:44;;;;;;;10.05;3.60;;;;;;;;;;1473785;40;20420;-79
2021/05/12 01:32:46;;;;;;;5.80;2.58;;;;;;;;;;1478452;40;20398;-78
2021/05/12 01:33:51;;;;;;;12.15;3.65;;;;;;;;;;1473722;40;20407;-78
2021/05/12 01:35:02;;;;;;;5.80;2.10;;;;;;;;;;1474126;40;20436;-79
2021/05/12 01:36:05;;;;;;;6.45;2.38;;;;;;;;;;1478243;40;21069;-78
2021/05/12 01:37:06;;;;;;;8.30;3.38;;;;;;;;;;1478353;40;20667;-78
2021/05/12 01:38:08;;;;;;;7.97;3.38;;;;;;;;;;1476048;40;20961;-78
2021/05/12 01:39:11;;;;;;;10.27;3.25;;;;;;;;;;1473818;40;20408;-78
2021/05/12 01:40:13;;;;;;;7.82;3.03;;;;;;;;;;1471445;40;20616;-78
2021/05/12 01:41:16;;;;;;;8.43;3.30;;;;;;;;;;1473701;40;20959;-78
2021/05/12 01:42:17;;;;;;;6.97;3.40;;;;;;;;;;1474051;40;20423;-78
2021/05/12 01:43:20;;;;;;;8.70;3.28;;;;;;;;;;1470719;40;20392;-78
2021/05/12 01:44:22;;;;;;;7.85;2.67;;;;;;;;;;1473302;40;20463;-78
2021/05/12 01:45:24;;;;;;;10.15;3.95;;;;;;;;;;1473456;40;20849;-78
2021/05/12 01:46:25;;;;;;;10.07;3.03;;;;;;;;;;1469392;40;20551;-79
2021/05/12 01:47:27;;;;;;;6.32;2.75;;;;;;;;;;1478339;40;20407;-78
2021/05/12 01:48:29;;;;;;;7.25;3.53;;;;;;;;;;1478060;40;20557;-78
2021/05/12 01:49:32;;;;;;;7.90;3.83;;;;;;;;;;1473332;40;20853;-78
2021/05/12 01:50:35;;;;;;;9.13;3.10;;;;;;;;;;1473594;40;20400;-78
2021/05/12 01:51:37;;;;;;;10.63;3.42;;;;;;;;;;1473847;40;20466;-78
2021/05/12 01:52:44;;;;;;;8.63;3.28;;;;;;;;;;1477679;40;20395;-79
2021/05/12 01:53:46;;;;;;;5.97;2.85;;;;;;;;;;1476872;40;20438;-78
2021/05/12 01:54:48;;;;;;;6.78;3.05;;;;;;;;;;1476565;40;20432;-80
2021/05/12 01:55:54;;;;;;;8.05;3.45;;;;;;;;;;1463489;40;20463;-79
2021/05/12 01:56:56;;;;;;;6.55;3.17;;;;;;;;;;1466492;40;20411;-79
2021/05/12 01:58:01;;;;;;;9.95;3.67;;;;;;;;;;1469511;40;20405;-79
2021/05/12 01:59:05;;;;;;;7.47;3.05;;;;;;;;;;1467448;40;20676;-78
2021/05/12 02:00:25;;;;;;;7.60;3.05;;;;;;;;;;1474281;40;20432;-78
2021/05/12 02:01:29;;;;;;;6.07;2.63;;;;;;;;;;1469060;40;20425;-78
2021/05/12 02:02:32;;;;;;;10.50;3.67;;;;;;;;;;1470194;40;20534;-78
2021/05/12 02:03:34;;;;;;;6.38;3.35;;;;;;;;;;1460798;40;20420;-77
2021/05/12 02:04:39;;;;;;;6.70;2.83;;;;;;;;;;1461726;40;20470;-78
2021/05/12 02:05:42;;;;;;;10.07;3.80;;;;;;;;;;1468639;40;20433;-77
2021/05/12 02:06:44;;;;;;;8.30;2.60;;;;;;;;;;1469586;40;20891;-78
2021/05/12 02:07:48;;;;;;;10.20;3.15;;;;;;;;;;1470741;40;20422;-78
2021/05/12 02:08:49;;;;;;;7.97;3.40;;;;;;;;;;1470297;40;20420;-77
2021/05/12 02:09:52;;;;;;;4.18;2.70;;;;;;;;;;1469600;40;20401;-78
2021/05/12 02:11:01;;;;;;;7.57;3.60;;;;;;;;;;1469515;40;20443;-78
2021/05/12 02:12:06;;;;;;;10.90;3.45;;;;;;;;;;1470331;40;20386;-78
2021/05/12 02:13:13;;;;;;;10.70;3.90;;;;;;;;;;1465160;40;20393;-78
2021/05/12 02:14:17;;;;;;;7.47;3.58;;;;;;;;;;1465944;40;20513;-78
2021/05/12 02:15:21;;;;;;;9.13;4.35;;;;;;;;;;1464665;40;20470;-78
2021/05/12 02:16:23;;;;;;;9.18;4.05;;;;;;;;;;1465321;40;20463;-78
2021/05/12 02:17:26;;;;;;;9.95;4.28;;;;;;;;;;1477623;40;20882;-78
2021/05/12 02:18:32;;;;;;;11.70;4.28;;;;;;;;;;1469111;40;20408;-78
2021/05/12 02:19:37;;;;;;;7.57;3.80;;;;;;;;;;1461983;40;20536;-77
2021/05/12 02:20:44;;;;;;;9.60;4.18;;;;;;;;;;1460835;40;20413;-77
2021/05/12 02:21:50;;;;;;;8.05;3.92;;;;;;;;;;1462265;40;20409;-78
2021/05/12 02:22:56;;;;;;;9.57;4.30;;;;;;;;;;1462794;40;20532;-78
2021/05/12 02:24:01;;;;;;;10.52;4.63;;;;;;;;;;1465506;40;20391;-78
2021/05/12 02:25:05;;;;;;;9.38;3.83;;;;;;;;;;1472521;40;20398;-78
2021/05/12 02:26:07;;;;;;;5.35;4.13;;;;;;;;;;1472354;40;20416;-78
2021/05/12 02:27:11;;;;;;;9.88;3.90;;;;;;;;;;1465678;40;20395;-77
2021/05/12 02:28:13;;;;;;;8.00;4.20;;;;;;;;;;1461989;40;20420;-77
2021/05/12 02:29:17;;;;;;;6.88;4.07;;;;;;;;;;1465330;40;20812;-78
2021/05/12 02:30:22;;;;;;;8.80;4.05;;;;;;;;;;1461841;40;20413;-78
2021/05/12 02:31:27;;;;;;;9.38;3.58;;;;;;;;;;1466013;40;20395;-78
2021/05/12 02:32:30;;;;;;;11.15;4.30;;;;;;;;;;1473679;40;20685;-77
2021/05/12 02:33:35;;;;;;;10.57;4.80;;;;;;;;;;1472572;40;20416;-78
2021/05/12 02:34:39;;;;;;;7.30;4.20;;;;;;;;;;1469967;40;20402;-77
2021/05/12 02:35:43;;;;;;;9.05;4.35;;;;;;;;;;1466153;40;20399;-77
2021/05/12 02:36:45;;;;;;;9.13;4.95;;;;;;;;;;1466360;40;20780;-78
2021/05/12 02:37:52;;;;;;;15.85;5.07;;;;;;;;;;1470197;40;20453;-78
2021/05/12 02:38:57;;;;;;;9.52;5.72;;;;;;;;;;1465936;40;20414;-78
2021/05/12 02:40:00;;;;;;;9.48;5.03;;;;;;;;;;1467546;40;20407;-77
2021/05/12 02:41:07;;;;;;;10.20;5.50;;;;;;;;;;1465500;40;20390;-78
2021/05/12 02:42:11;;;;;;;10.55;5.70;;;;;;;;;;1462269;40;20393;-78
2021/05/12 02:43:13;;;;;;;11.13;5.55;;;;;;;;;;1465842;40;20415;-78
2021/05/12 02:44:16;;;;;;;10.80;6.47;;;;;;;;;;1465591;40;20422;-78
2021/05/12 02:45:20;;;;;;;10.93;6.15;;;;;;;;;;1461121;40;20771;-78
2021/05/12 02:46:22;;;;;;;12.18;6.18;;;;;;;;;;1470294;40;20896;-78
2021/05/12 02:47:26;;;;;;;16.23;7.15;;;;;;;;;;1465881;40;20399;-77
2021/05/12 02:48:29;;;;;;;14.13;6.97;;;;;;;;;;1466420;40;20872;-78
2021/05/12 02:49:31;;;;;;;8.93;6.07;;;;;;;;;;1470046;40;20400;-78
2021/05/12 02:50:38;;;;;;;7.38;5.70;;;;;;;;;;1470091;40;20913;-78
2021/05/12 02:51:43;;;;;;;10.60;5.45;;;;;;;;;;1473235;40;20392;-78
2021/05/12 02:52:46;;;;;;;10.55;6.40;;;;;;;;;;1468239;40;20505;-78
2021/05/12 02:53:49;;;;;;;12.23;7.22;;;;;;;;;;1466117;40;20430;-78
2021/05/12 02:54:53;;;;;;;13.52;7.80;;;;;;;;;;1471071;40;20411;-78
2021/05/12 02:55:58;;;;;;;12.30;6.97;;;;;;;;;;1465172;40;20439;-79
2021/05/12 02:57:04;;;;;;;13.75;7.00;;;;;;;;;;1461216;40;20405;-78
2021/05/12 02:58:07;;;;;;;12.25;7.35;;;;;;;;;;1467798;40;20706;-78
2021/05/12 02:59:10;;;;;;;9.98;6.50;;;;;;;;;;1478315;40;20386;-78
2021/05/12 03:00:16;;;;;;;13.98;7.28;;;;;;;;;;1465288;40;20479;-78
2021/05/12 03:01:18;;;;;;;11.48;7.63;;;;;;;;;;1466137;40;20426;-78
2021/05/12 03:02:22;;;;;;;13.95;8.57;;;;;;;;;;1465535;40;20403;-78
2021/05/12 03:03:24;;;;;;;13.02;7.65;;;;;;;;;;1469467;40;20409;-78
2021/05/12 03:04:26;;;;;;;14.02;8.68;;;;;;;;;;1473713;40;20475;-78
2021/05/12 03:05:30;;;;;;;11.05;7.63;;;;;;;;;;1477667;40;20422;-78
2021/05/12 03:06:33;;;;;;;14.57;8.55;;;;;;;;;;1469349;40;20410;-77
2021/05/12 03:07:35;;;;;;;15.77;8.75;;;;;;;;;;1465744;40;20836;-78
2021/05/12 03:08:38;;;;;;;15.75;9.45;;;;;;;;;;1469548;40;20492;-78
2021/05/12 03:09:41;;;;;;;14.52;8.75;;;;;;;;;;1469441;40;20495;-78
2021/05/12 03:10:42;;;;;;;19.15;9.65;;;;;;;;;;1472780;40;20415;-78
2021/05/12 03:11:44;;;;;;;17.77;9.30;;;;;;;;;;1469469;40;20446;-78
2021/05/12 03:12:47;;;;;;;14.60;10.43;;;;;;;;;;1469687;40;20398;-78
2021/05/12 03:13:50;;;;;;;17.02;10.70;;;;;;;;;;1470650;40;20440;-77
2021/05/12 03:14:54;;;;;;;18.20;10.65;;;;;;;;;;1465874;40;20489;-78
2021/05/12 03:15:56;;;;;;;19.80;10.68;;;;;;;;;;1465964;40;20431;-79
2021/05/12 03:16:58;;;;;;;16.67;10.55;;;;;;;;;;1469539;40;20705;-78
2021/05/12 03:18:04;;;;;;;17.45;11.85;;;;;;;;;;1468670;40;20833;-78
2021/05/12 03:19:06;;;;;;;17.48;11.35;;;;;;;;;;1474295;40;20522;-78
2021/05/12 03:20:09;;;;;;;15.07;10.85;;;;;;;;;;1473819;40;20404;-78
2021/05/12 03:21:10;;;;;;;15.97;10.97;;;;;;;;;;1465816;40;20428;-78
2021/05/12 03:22:12;;;;;;;17.08;11.10;;;;;;;;;;1465675;40;20510;-78
2021/05/12 03:23:16;;;;;;;16.35;11.15;;;;;;;;;;1471113;40;20408;-78
2021/05/12 03:24:19;;;;;;;16.23;11.95;;;;;;;;;;1474042;40;21015;-78
2021/05/12 03:25:24;;;;;;;16.08;11.30;;;;;;;;;;1465302;40;20387;-78
2021/05/12 03:26:27;;;;;;;18.23;11.23;;;;;;;;;;1466362;40;20411;-77
2021/05/12 03:27:30;;;;;;;16.57;12.10;;;;;;;;;;1465591;40;20781;-78
2021/05/12 03:28:34;;;;;;;16.98;12.20;;;;;;;;;;1462509;40;20420;-77
2021/05/12 03:29:39;;;;;;;17.15;12.52;;;;;;;;;;1473424;40;20400;-79
2021/05/12 03:30:45;;;;;;;15.57;11.17;;;;;;;;;;1465576;40;20603;-78
2021/05/12 03:31:46;;;;;;;15.70;11.63;;;;;;;;;;1466352;40;20521;-78
2021/05/12 03:32:49;;;;;;;17.58;12.25;;;;;;;;;;1478222;40;20429;-78
2021/05/12 03:33:57;;;;;;;16.67;11.95;;;;;;;;;;1477584;40;20412;-78
2021/05/12 03:34:59;;;;;;;20.00;12.95;;;;;;;;;;1478472;40;20423;-80
2021/05/12 03:36:06;;;;;;;17.20;11.82;;;;;;;;;;1478284;40;20499;-78
2021/05/12 03:37:10;;;;;;;17.52;12.05;;;;;;;;;;1466281;40;20398;-78
2021/05/12 03:38:13;;;;;;;16.60;11.68;;;;;;;;;;1471813;40;20424;-78
2021/05/12 03:39:15;;;;;;;16.23;12.00;;;;;;;;;;1478754;40;20414;-77
2021/05/12 03:40:17;;;;;;;20.38;12.05;;;;;;;;;;1473920;40;20432;-77
2021/05/12 03:41:19;;;;;;;16.25;12.10;;;;;;;;;;1474523;40;20439;-77
2021/05/12 03:42:21;;;;;;;17.13;12.70;;;;;;;;;;1474586;40;20521;-77
2021/05/12 03:43:23;;;;;;;18.42;12.88;;;;;;;;;;1473884;40;20411;-78
2021/05/12 03:44:24;;;;;;;20.85;13.25;;;;;;;;;;1478244;40;20402;-77
2021/05/12 03:45:28;;;;;;;20.20;12.57;;;;;;;;;;1478091;40;20707;-78
2021/05/12 03:46:30;;;;;;;19.23;12.95;;;;;;;;;;1469631;40;20402;-78
2021/05/12 03:47:31;;;;;;;18.33;12.75;;;;;;;;;;1469421;40;20722;-77
2021/05/12 03:48:33;;;;;;;16.73;12.85;;;;;;;;;;1472527;40;20420;-77
2021/05/12 03:49:35;;;;;;;18.98;12.93;;;;;;;;;;1469681;40;21133;-78
2021/05/12 03:50:38;;;;;;;17.60;13.70;;;;;;;;;;1465366;40;20430;-77
2021/05/12 03:51:43;;;;;;;18.60;13.27;;;;;;;;;;1470271;40;20409;-77
2021/05/12 03:52:45;;;;;;;17.48;13.30;;;;;;;;;;1477931;40;20778;-77
2021/05/12 03:53:55;;;;;;;19.13;13.23;;;;;;;;;;1465525;40;20693;-77
2021/05/12 03:55:01;;;;;;;20.33;13.70;;;;;;;;;;1463695;40;20389;-79
2021/05/12 03:56:06;;;;;;;18.95;13.93;;;;;;;;;;1462215;40;20431;-77
2021/05/12 03:57:08;;;;;;;19.75;13.13;;;;;;;;;;1466268;40;20446;-77
2021/05/12 03:58:13;;;;;;;25.83;12.77;;;;;;;;;;1464039;40;20411;-78
2021/05/12 03:59:15;;;;;;;20.25;12.73;;;;;;;;;;1458645;40;21204;-78
2021/05/12 04:00:18;;;;;;;16.05;11.35;;;;;;;;;;1469140;40;20413;-77
2021/05/12 04:01:23;;;;;;;18.63;10.07;;;;;;;;;;1469757;40;20412;-78
2021/05/12 04:02:28;;;;;;;21.88;10.30;;;;;;;;;;1461883;40;20456;-78
2021/05/12 04:03:32;;;;;;;16.77;8.90;;;;;;;;;;1462352;40;20644;-77
2021/05/12 04:04:34;;;;;;;15.75;8.88;;;;;;;;;;1466061;40;20415;-77
2021/05/12 04:05:39;;;;;;;14.73;6.70;;;;;;;;;;1461238;40;20464;-77
2021/05/12 04:06:44;;;;;;;16.67;6.25;;;;;;;;;;1462902;40;20429;-77
2021/05/12 04:07:48;;;;;;;12.30;5.97;;;;;;;;;;1473244;40;20433;-78
2021/05/12 04:08:49;;;;;;;14.25;5.32;;;;;;;;;;1474302;40;20520;-78
2021/05/12 04:09:51;;;;;;;12.90;4.43;;;;;;;;;;1472495;40;20401;-78
2021/05/12 04:10:56;;;;;;;15.95;4.25;;;;;;;;;;1465717;40;21058;-79
2021/05/12 04:11:58;;;;;;;16.23;3.73;;;;;;;;;;1457893;40;20890;-79
2021/05/12 04:13:00;;;;;;;11.55;3.67;;;;;;;;;;1464947;40;20761;-78
2021/05/12 04:14:04;;;;;;;13.57;3.92;;;;;;;;;;1469710;40;20892;-78
2021/05/12 04:15:08;;;;;;;18.85;3.25;;;;;;;;;;1474245;40;20406;-78
2021/05/12 04:16:10;;;;;;;14.13;3.13;;;;;;;;;;1473982;40;20494;-78
2021/05/12 04:17:14;;;;;;;16.77;3.25;;;;;;;;;;1465680;40;20410;-78
2021/05/12 04:18:17;;;;;;;14.60;2.90;;;;;;;;;;1470007;40;20410;-78
2021/05/12 04:19:21;;;;;;;13.45;2.58;;;;;;;;;;1474220;40;20638;-78
2021/05/12 04:20:23;;;;;;;22.50;3.75;;;;;;;;;;1470170;40;20738;-78
2021/05/12 04:21:26;;;;;;;12.68;2.70;;;;;;;;;;1474427;40;20392;-78
2021/05/12 04:22:30;;;;;;;15.63;3.35;;;;;;;;;;1465222;40;20407;-78
2021/05/12 04:23:33;;;;;;;13.73;2.72;;;;;;;;;;1466216;40;20419;-77
2021/05/12 04:24:37;;;;;;;12.63;2.65;;;;;;;;;;1465868;40;20684;-77
2021/05/12 04:25:39;;;;;;;15.85;2.30;;;;;;;;;;1465118;40;20418;-78
2021/05/12 04:26:41;;;;;;;15.48;3.05;;;;;;;;;;1469804;40;20400;-78
2021/05/12 04:27:44;;;;;;;13.90;2.55;;;;;;;;;;1471205;40;20397;-77
2021/05/12 04:28:46;;;;;;;21.10;3.30;;;;;;;;;;1474187;40;20403;-78
2021/05/12 04:29:49;;;;;;;14.50;3.67;;;;;;;;;;1473949;40;20416;-77
2021/05/12 04:30:54;;;;;;;14.88;2.83;;;;;;;;;;1474118;40;20391;-78
2021/05/12 04:31:56;;;;;;;16.02;3.10;;;;;;;;;;1470106;40;20783;-78
2021/05/12 04:33:01;;;;;;;10.93;2.55;;;;;;;;;;1469904;40;20389;-79
2021/05/12 04:34:02;;;;;;;13.98;2.63;;;;;;;;;;1473606;40;20408;-78
2021/05/12 04:35:08;;;;;;;13.88;2.13;;;;;;;;;;1473727;40;20424;-78
2021/05/12 04:36:11;;;;;;;15.80;2.97;;;;;;;;;;1470998;40;20402;-78
2021/05/12 04:37:15;;;;;;;12.13;2.72;;;;;;;;;;1466376;40;20433;-78
2021/05/12 04:38:17;;;;;;;9.85;2.28;;;;;;;;;;1463147;40;20891;-78
2021/05/12 04:39:19;;;;;;;15.02;2.22;;;;;;;;;;1473813;40;21109;-78
2021/05/12 04:40:21;;;;;;;14.93;3.05;;;;;;;;;;1474220;40;21082;-79
2021/05/12 04:41:23;;;;;;;13.18;2.20;;;;;;;;;;1474003;40;20428;-78
2021/05/12 04:42:24;;;;;;;15.90;2.50;;;;;;;;;;1474563;40;20452;-78
2021/05/12 04:43:26;;;;;;;10.38;2.22;;;;;;;;;;1473933;40;20419;-79
2021/05/12 04:44:28;;;;;;;11.13;2.20;;;;;;;;;;1470045;40;20692;-78
2021/05/12 04:45:29;;;;;;;16.45;3.15;;;;;;;;;;1470413;40;20417;-79
2021/05/12 04:46:32;;;;;;;17.45;3.47;;;;;;;;;;1474361;40;20858;-78
2021/05/12 04:47:34;;;;;;;18.80;2.63;;;;;;;;;;1474017;40;20415;-78
2021/05/12 04:48:35;;;;;;;13.82;2.65;;;;;;;;;;1473638;40;20403;-78
2021/05/12 04:49:37;;;;;;;16.65;3.15;;;;;;;;;;1474200;40;20420;-78
2021/05/12 04:50:39;;;;;;;12.30;2.47;;;;;;;;;;1469086;40;20662;-78
2021/05/12 04:51:41;;;;;;;12.67;2.90;;;;;;;;;;1470048;40;20577;-78
2021/05/12 04:52:43;;;;;;;13.70;2.38;;;;;;;;;;1469051;40;20677;-78
2021/05/12 04:53:45;;;;;;;14.00;2.33;;;;;;;;;;1463756;40;20395;-78
2021/05/12 04:54:47;;;;;;;12.20;2.60;;;;;;;;;;1467746;40;20413;-79
2021/05/12 04:55:48;;;;;;;11.23;1.90;;;;;;;;;;1469608;40;20425;-78
2021/05/12 04:56:50;;;;;;;14.65;2.47;;;;;;;;;;1473940;40;20407;-79
2021/05/12 04:57:53;;;;;;;12.90;3.22;;;;;;;;;;1475904;40;20420;-78
2021/05/12 04:58:58;;;;;;;13.30;2.13;;;;;;;;;;1471249;40;20813;-79
2021/05/12 05:00:04;;;;;;;9.98;2.78;;;;;;;;;;1465901;40;20700;-79
2021/05/12 05:01:07;;;;;;;15.80;3.05;;;;;;;;;;1466446;40;20455;-79
2021/05/12 05:02:13;;;;;;;12.85;2.92;;;;;;;;;;1461578;40;20401;-79
2021/05/12 05:03:15;;;;;;;13.30;2.60;;;;;;;;;;1464803;40;20521;-78
2021/05/12 05:04:21;;;;;;;21.77;3.85;;;;;;;;;;1465553;40;20995;-78
2021/05/12 05:05:26;;;;;;;11.43;1.90;;;;;;;;;;1466964;40;20404;-78
2021/05/12 05:06:28;;;;;;;12.57;3.22;;;;;;;;;;1473805;40;20434;-78
2021/05/12 05:07:30;;;;;;;15.00;2.65;;;;;;;;;;1466724;40;20473;-79
2021/05/12 05:08:34;;;;;;;17.70;3.30;;;;;;;;;;1465838;40;20731;-78
2021/05/12 05:09:39;;;;;;;15.52;3.13;;;;;;;;;;1465264;40;20392;-78
2021/05/12 05:10:41;;;;;;;15.15;2.60;;;;;;;;;;1465239;40;20431;-78
2021/05/12 05:11:42;;;;;;;13.45;2.72;;;;;;;;;;1474208;40;20419;-79
2021/05/12 05:12:44;;;;;;;17.27;2.70;;;;;;;;;;1470483;40;20406;-79
2021/05/12 05:13:46;;;;;;;10.45;2.45;;;;;;;;;;1471535;40;20454;-78
2021/05/12 05:14:48;;;;;;;14.90;2.05;;;;;;;;;;1473816;40;20415;-78
2021/05/12 05:15:52;;;;;;;12.05;2.05;;;;;;;;;;1464933;40;20398;-78
2021/05/12 05:16:54;;;;;;;11.13;2.05;;;;;;;;;;1461826;40;20481;-79
2021/05/12 05:17:59;;;;;;;19.20;3.67;;;;;;;;;;1462191;40;20393;-79
2021/05/12 05:19:01;;;;;;;14.20;2.50;;;;;;;;;;1462158;40;20428;-79
2021/05/12 05:20:04;;;;;;;18.25;2.53;;;;;;;;;;1470177;40;20438;-79
2021/05/12 05:21:10;;;;;;;28.03;4.33;;;;;;;;;;1469566;40;20916;-78
2021/05/12 05:22:14;;;;;;;13.70;2.53;;;;;;;;;;1470610;40;20410;-78
2021/05/12 05:23:16;;;;;;;12.68;2.35;;;;;;;;;;1474652;40;20400;-78
2021/05/12 05:24:17;;;;;;;15.55;2.33;;;;;;;;;;1469969;40;20413;-79
2021/05/12 05:25:22;;;;;;;16.45;2.58;;;;;;;;;;1461670;40;20444;-78
2021/05/12 05:26:25;;;;;;;17.40;3.33;;;;;;;;;;1470117;40;20428;-79
2021/05/12 05:27:26;;;;;;;15.85;2.40;;;;;;;;;;1473162;40;20415;-79
2021/05/12 05:28:28;;;;;;;17.35;2.92;;;;;;;;;;1474286;40;20839;-78
2021/05/12 05:29:32;;;;;;;13.20;2.83;;;;;;;;;;1473865;40;20404;-78
2021/05/12 05:30:33;;;;;;;14.38;2.50;;;;;;;;;;1474532;40;20412;-78
2021/05/12 05:31:35;;;;;;;18.95;3.63;;;;;;;;;;1469545;40;20426;-79
2021/05/12 05:32:37;;;;;;;17.77;2.92;;;;;;;;;;1470203;40;20409;-78
2021/05/12 05:33:39;;;;;;;15.27;3.05;;;;;;;;;;1477596;40;20418;-78
2021/05/12 05:34:41;;;;;;;16.73;2.90;;;;;;;;;;1473869;40;20412;-78
2021/05/12 05:35:43;;;;;;;14.93;2.58;;;;;;;;;;1473634;40;20852;-78
2021/05/12 05:36:44;;;;;;;16.67;2.90;;;;;;;;;;1474641;40;20439;-78
2021/05/12 05:37:46;;;;;;;12.80;2.42;;;;;;;;;;1473190;40;20414;-78
2021/05/12 05:38:50;;;;;;;15.70;2.50;;;;;;;;;;1470761;40;20872;-78
2021/05/12 05:39:52;;;;;;;13.85;2.63;;;;;;;;;;1471993;40;20408;-79
2021/05/12 05:40:54;;;;;;;10.93;2.55;;;;;;;;;;1474134;40;20455;-78
2021/05/12 05:41:55;;;;;;;18.17;2.78;;;;;;;;;;1474461;40;20407;-79
2021/05/12 05:43:02;;;;;;;17.83;2.88;;;;;;;;;;1474600;40;20404;-80
2021/05/12 05:44:05;;;;;;;12.25;2.40;;;;;;;;;;1471748;40;20425;-79
2021/05/12 05:45:07;;;;;;;14.57;3.15;;;;;;;;;;1470215;40;20406;-79
2021/05/12 05:46:09;;;;;;;14.17;2.87;;;;;;;;;;1469457;40;20615;-79
2021/05/12 05:47:10;;;;;;;17.65;2.45;;;;;;;;;;1457786;40;20473;-78
2021/05/12 05:48:12;;;;;;;13.32;3.10;;;;;;;;;;1461899;40;20421;-78
2021/05/12 05:49:14;;;;;;;18.92;3.40;;;;;;;;;;1473805;40;20411;-79
2021/05/12 05:50:19;;;;;;;13.52;2.95;;;;;;;;;;1469928;40;20398;-78
2021/05/12 05:51:22;;;;;;;19.85;3.05;;;;;;;;;;1470035;40;20414;-78
2021/05/12 05:52:24;;;;;;;21.25;3.72;;;;;;;;;;1469753;40;20699;-79
2021/05/12 05:53:26;;;;;;;13.15;2.50;;;;;;;;;;1472125;40;20439;-78
2021/05/12 05:54:28;;;;;;;24.83;3.83;;;;;;;;;;1473625;40;20415;-79
2021/05/12 05:55:29;;;;;;;14.63;2.50;;;;;;;;;;1470128;40;20469;-78
2021/05/12 05:56:33;;;;;;;20.60;3.20;;;;;;;;;;1470255;40;20420;-78
2021/05/12 05:57:35;;;;;;;17.73;3.25;;;;;;;;;;1472658;40;20437;-79
2021/05/12 05:58:40;;;;;;;18.05;2.45;;;;;;;;;;1469538;40;20484;-78
2021/05/12 05:59:42;;;;;;;20.98;2.60;;;;;;;;;;1465775;40;20411;-78
2021/05/12 06:00:45;;;;;;;19.10;2.70;;;;;;;;;;1469796;40;20410;-79
2021/05/12 06:01:47;;;;;;;12.93;3.05;;;;;;;;;;1474913;40;20392;-80
2021/05/12 06:02:49;;;;;;;15.48;3.20;;;;;;;;;;1478356;40;20678;-79
2021/05/12 06:03:51;;;;;;;14.43;2.33;;;;;;;;;;1479082;40;20416;-78
2021/05/12 06:04:52;;;;;;;18.90;2.70;;;;;;;;;;1478218;40;20419;-78
2021/05/12 06:05:54;;;;;;;12.82;2.45;;;;;;;;;;1479187;40;20439;-78
2021/05/12 06:06:56;;;;;;;20.85;3.38;;;;;;;;;;1470606;40;20500;-78
2021/05/12 06:07:58;;;;;;;15.60;2.60;;;;;;;;;;1473215;40;20540;-79
2021/05/12 06:09:00;;;;;;;18.83;2.88;;;;;;;;;;1475976;40;20416;-79
2021/05/12 06:10:02;;;;;;;17.33;2.97;;;;;;;;;;1475761;40;20527;-79
2021/05/12 06:11:04;;;;;;;18.17;2.30;;;;;;;;;;1475146;40;20404;-79
2021/05/12 06:12:06;;;;;;;18.42;3.72;;;;;;;;;;1470091;40;20834;-79
2021/05/12 06:13:07;;;;;;;14.90;3.15;;;;;;;;;;1469979;40;20473;-79
2021/05/12 06:14:09;;;;;;;16.13;2.95;;;;;;;;;;1473721;40;20467;-79
2021/05/12 06:15:17;;;;;;;15.50;2.35;;;;;;;;;;1473811;40;20463;-78
2021/05/12 06:16:24;;;;;;;15.88;3.08;;;;;;;;;;1469354;40;21104;-78